sensor_id;sensor_type;location;lat;lon;timestamp;P1;durP1;ratioP1;P2;durP2;ratioP2
72286;SDS011;60221;45.696;16.076;2023-04-16T00:01:12;7.40;;;2.90;;
72286;SDS011;60221;45.696;16.076;2023-04-16T00:03:39;6.60;;;3.00;;
72286;SDS011;60221;45.696;16.076;2023-04-16T00:06:06;7.50;;;3.30;;
72286;SDS011;60221;45.696;16.076;2023-04-16T00:08:33;8.90;;;3.70;;
72286;SDS011;60221;45.696;16.076;2023-04-16T00:11:01;8.90;;;3.40;;
72286;SDS011;60221;45.696;16.076;2023-04-16T00:13:28;10.60;;;3.50;;
72286;SDS011;60221;45.696;16.076;2023-04-16T00:15:55;10.20;;;3.40;;
72286;SDS011;60221;45.696;16.076;2023-04-16T00:18:21;10.00;;;4.00;;
72286;SDS011;60221;45.696;16.076;2023-04-16T00:20:48;9.40;;;3.80;;
72286;SDS011;60221;45.696;16.076;2023-04-16T00:23:16;12.00;;;4.20;;
72286;SDS011;60221;45.696;16.076;2023-04-16T00:25:43;10.80;;;4.00;;
72286;SDS011;60221;45.696;16.076;2023-04-16T00:28:09;9.10;;;3.80;;
72286;SDS011;60221;45.696;16.076;2023-04-16T00:30:36;10.30;;;4.20;;
72286;SDS011;60221;45.696;16.076;2023-04-16T00:33:03;8.40;;;4.30;;
72286;SDS011;60221;45.696;16.076;2023-04-16T00:35:30;10.30;;;4.50;;
72286;SDS011;60221;45.696;16.076;2023-04-16T00:37:57;12.70;;;5.20;;
72286;SDS011;60221;45.696;16.076;2023-04-16T00:40:26;12.90;;;5.50;;
72286;SDS011;60221;45.696;16.076;2023-04-16T00:42:53;10.10;;;5.10;;
72286;SDS011;60221;45.696;16.076;2023-04-16T00:45:20;13.30;;;6.50;;
72286;SDS011;60221;45.696;16.076;2023-04-16T00:47:46;12.60;;;6.30;;
72286;SDS011;60221;45.696;16.076;2023-04-16T00:50:13;14.80;;;6.70;;
72286;SDS011;60221;45.696;16.076;2023-04-16T00:52:40;13.50;;;6.80;;
72286;SDS011;60221;45.696;16.076;2023-04-16T00:55:08;11.30;;;6.00;;
72286;SDS011;60221;45.696;16.076;2023-04-16T00:57:38;12.10;;;6.30;;
72286;SDS011;60221;45.696;16.076;2023-04-16T01:00:06;13.80;;;7.10;;
72286;SDS011;60221;45.696;16.076;2023-04-16T01:02:33;12.30;;;6.80;;
72286;SDS011;60221;45.696;16.076;2023-04-16T01:05:00;12.80;;;6.20;;
72286;SDS011;60221;45.696;16.076;2023-04-16T01:07:27;12.80;;;6.40;;
72286;SDS011;60221;45.696;16.076;2023-04-16T01:09:54;9.90;;;5.20;;
72286;SDS011;60221;45.696;16.076;2023-04-16T01:12:22;12.90;;;6.80;;
72286;SDS011;60221;45.696;16.076;2023-04-16T01:14:50;12.20;;;6.20;;
72286;SDS011;60221;45.696;16.076;2023-04-16T01:17:17;13.00;;;7.00;;
72286;SDS011;60221;45.696;16.076;2023-04-16T01:19:44;13.30;;;5.70;;
72286;SDS011;60221;45.696;16.076;2023-04-16T01:22:11;11.10;;;5.50;;
72286;SDS011;60221;45.696;16.076;2023-04-16T01:24:38;10.80;;;5.30;;
72286;SDS011;60221;45.696;16.076;2023-04-16T01:27:08;10.10;;;5.20;;
72286;SDS011;60221;45.696;16.076;2023-04-16T01:29:35;9.60;;;4.70;;
72286;SDS011;60221;45.696;16.076;2023-04-16T01:32:02;11.30;;;4.70;;
72286;SDS011;60221;45.696;16.076;2023-04-16T01:34:39;11.20;;;5.10;;
72286;SDS011;60221;45.696;16.076;2023-04-16T01:37:08;8.60;;;4.00;;
72286;SDS011;60221;45.696;16.076;2023-04-16T01:39:35;8.20;;;3.10;;
72286;SDS011;60221;45.696;16.076;2023-04-16T01:42:02;8.40;;;3.10;;
72286;SDS011;60221;45.696;16.076;2023-04-16T01:44:28;7.50;;;3.60;;
72286;SDS011;60221;45.696;16.076;2023-04-16T01:46:56;15.50;;;4.60;;
72286;SDS011;60221;45.696;16.076;2023-04-16T01:49:24;7.30;;;3.40;;
72286;SDS011;60221;45.696;16.076;2023-04-16T01:51:51;8.10;;;4.00;;
72286;SDS011;60221;45.696;16.076;2023-04-16T01:54:18;7.70;;;3.60;;
72286;SDS011;60221;45.696;16.076;2023-04-16T01:56:45;10.70;;;5.30;;
72286;SDS011;60221;45.696;16.076;2023-04-16T01:59:12;7.20;;;3.50;;
72286;SDS011;60221;45.696;16.076;2023-04-16T02:01:39;9.30;;;3.90;;
72286;SDS011;60221;45.696;16.076;2023-04-16T02:04:08;8.10;;;3.30;;
72286;SDS011;60221;45.696;16.076;2023-04-16T02:06:35;8.20;;;2.80;;
72286;SDS011;60221;45.696;16.076;2023-04-16T02:09:02;8.00;;;2.80;;
72286;SDS011;60221;45.696;16.076;2023-04-16T02:11:29;8.10;;;3.30;;
72286;SDS011;60221;45.696;16.076;2023-04-16T02:13:56;7.60;;;3.40;;
72286;SDS011;60221;45.696;16.076;2023-04-16T02:16:24;7.00;;;2.50;;
72286;SDS011;60221;45.696;16.076;2023-04-16T02:18:57;5.60;;;2.30;;
72286;SDS011;60221;45.696;16.076;2023-04-16T02:21:25;6.40;;;2.20;;
72286;SDS011;60221;45.696;16.076;2023-04-16T02:23:53;6.30;;;2.20;;
72286;SDS011;60221;45.696;16.076;2023-04-16T02:26:24;6.50;;;2.20;;
72286;SDS011;60221;45.696;16.076;2023-04-16T02:28:53;6.40;;;2.10;;
72286;SDS011;60221;45.696;16.076;2023-04-16T02:31:22;6.80;;;2.10;;
72286;SDS011;60221;45.696;16.076;2023-04-16T02:33:49;7.80;;;2.60;;
72286;SDS011;60221;45.696;16.076;2023-04-16T02:36:16;9.60;;;3.50;;
72286;SDS011;60221;45.696;16.076;2023-04-16T02:38:43;15.10;;;5.60;;
72286;SDS011;60221;45.696;16.076;2023-04-16T02:41:10;59.40;;;18.90;;
72286;SDS011;60221;45.696;16.076;2023-04-16T02:43:37;29.90;;;10.40;;
72286;SDS011;60221;45.696;16.076;2023-04-16T02:46:04;20.50;;;5.90;;
72286;SDS011;60221;45.696;16.076;2023-04-16T02:48:30;14.30;;;6.00;;
72286;SDS011;60221;45.696;16.076;2023-04-16T02:50:57;13.40;;;4.10;;
72286;SDS011;60221;45.696;16.076;2023-04-16T02:53:24;8.20;;;2.70;;
72286;SDS011;60221;45.696;16.076;2023-04-16T02:55:51;7.40;;;2.30;;
72286;SDS011;60221;45.696;16.076;2023-04-16T02:58:19;7.50;;;3.00;;
72286;SDS011;60221;45.696;16.076;2023-04-16T03:00:46;5.90;;;2.10;;
72286;SDS011;60221;45.696;16.076;2023-04-16T03:03:13;8.10;;;3.00;;
72286;SDS011;60221;45.696;16.076;2023-04-16T03:05:40;5.20;;;2.00;;
72286;SDS011;60221;45.696;16.076;2023-04-16T03:08:07;7.30;;;2.10;;
72286;SDS011;60221;45.696;16.076;2023-04-16T03:10:34;7.50;;;2.50;;
72286;SDS011;60221;45.696;16.076;2023-04-16T03:13:02;6.10;;;2.30;;
72286;SDS011;60221;45.696;16.076;2023-04-16T03:15:29;5.90;;;2.60;;
72286;SDS011;60221;45.696;16.076;2023-04-16T03:17:56;6.10;;;2.50;;
72286;SDS011;60221;45.696;16.076;2023-04-16T03:20:23;14.90;;;7.30;;
72286;SDS011;60221;45.696;16.076;2023-04-16T03:22:51;13.40;;;6.90;;
72286;SDS011;60221;45.696;16.076;2023-04-16T03:25:18;10.30;;;5.80;;
72286;SDS011;60221;45.696;16.076;2023-04-16T03:27:45;15.10;;;6.60;;
72286;SDS011;60221;45.696;16.076;2023-04-16T03:30:12;10.80;;;4.80;;
72286;SDS011;60221;45.696;16.076;2023-04-16T03:32:39;16.00;;;5.20;;
72286;SDS011;60221;45.696;16.076;2023-04-16T03:35:06;10.40;;;4.00;;
72286;SDS011;60221;45.696;16.076;2023-04-16T03:37:34;7.50;;;2.70;;
72286;SDS011;60221;45.696;16.076;2023-04-16T03:40:01;11.10;;;3.40;;
72286;SDS011;60221;45.696;16.076;2023-04-16T03:42:29;7.10;;;2.40;;
72286;SDS011;60221;45.696;16.076;2023-04-16T03:44:56;6.20;;;2.20;;
72286;SDS011;60221;45.696;16.076;2023-04-16T03:47:23;7.00;;;2.00;;
72286;SDS011;60221;45.696;16.076;2023-04-16T03:49:51;5.40;;;1.80;;
72286;SDS011;60221;45.696;16.076;2023-04-16T03:52:18;6.60;;;2.00;;
72286;SDS011;60221;45.696;16.076;2023-04-16T03:54:45;6.90;;;2.20;;
72286;SDS011;60221;45.696;16.076;2023-04-16T03:57:19;6.10;;;1.60;;
72286;SDS011;60221;45.696;16.076;2023-04-16T03:59:46;5.50;;;1.50;;
72286;SDS011;60221;45.696;16.076;2023-04-16T04:02:14;6.20;;;1.40;;
72286;SDS011;60221;45.696;16.076;2023-04-16T04:04:41;4.90;;;1.60;;
72286;SDS011;60221;45.696;16.076;2023-04-16T04:07:09;6.20;;;1.50;;
72286;SDS011;60221;45.696;16.076;2023-04-16T04:09:36;4.70;;;1.50;;
72286;SDS011;60221;45.696;16.076;2023-04-16T04:12:02;5.40;;;1.50;;
72286;SDS011;60221;45.696;16.076;2023-04-16T04:14:29;5.80;;;1.70;;
72286;SDS011;60221;45.696;16.076;2023-04-16T04:16:58;6.20;;;2.10;;
72286;SDS011;60221;45.696;16.076;2023-04-16T04:19:25;5.90;;;1.90;;
72286;SDS011;60221;45.696;16.076;2023-04-16T04:21:52;6.10;;;1.80;;
72286;SDS011;60221;45.696;16.076;2023-04-16T04:24:19;8.10;;;2.20;;
72286;SDS011;60221;45.696;16.076;2023-04-16T04:26:46;7.90;;;2.10;;
72286;SDS011;60221;45.696;16.076;2023-04-16T04:29:12;11.00;;;3.00;;
72286;SDS011;60221;45.696;16.076;2023-04-16T04:31:39;10.00;;;4.00;;
72286;SDS011;60221;45.696;16.076;2023-04-16T04:34:06;9.50;;;3.60;;
72286;SDS011;60221;45.696;16.076;2023-04-16T04:36:33;9.80;;;3.50;;
72286;SDS011;60221;45.696;16.076;2023-04-16T04:39:00;6.80;;;2.60;;
72286;SDS011;60221;45.696;16.076;2023-04-16T04:41:27;6.70;;;2.00;;
72286;SDS011;60221;45.696;16.076;2023-04-16T04:43:53;6.40;;;2.10;;
72286;SDS011;60221;45.696;16.076;2023-04-16T04:46:20;6.00;;;2.10;;
72286;SDS011;60221;45.696;16.076;2023-04-16T04:48:48;6.50;;;1.90;;
72286;SDS011;60221;45.696;16.076;2023-04-16T04:51:15;6.70;;;1.70;;
72286;SDS011;60221;45.696;16.076;2023-04-16T04:53:42;5.10;;;1.60;;
72286;SDS011;60221;45.696;16.076;2023-04-16T04:56:09;6.50;;;1.80;;
72286;SDS011;60221;45.696;16.076;2023-04-16T04:58:39;6.30;;;1.50;;
72286;SDS011;60221;45.696;16.076;2023-04-16T05:01:06;4.80;;;1.60;;
72286;SDS011;60221;45.696;16.076;2023-04-16T05:03:33;5.10;;;2.00;;
72286;SDS011;60221;45.696;16.076;2023-04-16T05:06:00;5.40;;;1.80;;
72286;SDS011;60221;45.696;16.076;2023-04-16T05:08:26;6.30;;;2.30;;
72286;SDS011;60221;45.696;16.076;2023-04-16T05:10:53;8.30;;;3.90;;
72286;SDS011;60221;45.696;16.076;2023-04-16T05:13:20;9.70;;;4.30;;
72286;SDS011;60221;45.696;16.076;2023-04-16T05:15:47;8.00;;;3.00;;
72286;SDS011;60221;45.696;16.076;2023-04-16T05:18:14;7.10;;;2.70;;
72286;SDS011;60221;45.696;16.076;2023-04-16T05:20:41;6.40;;;2.20;;
72286;SDS011;60221;45.696;16.076;2023-04-16T05:23:08;10.20;;;2.90;;
72286;SDS011;60221;45.696;16.076;2023-04-16T05:25:35;6.90;;;2.30;;
72286;SDS011;60221;45.696;16.076;2023-04-16T05:28:02;8.70;;;3.10;;
72286;SDS011;60221;45.696;16.076;2023-04-16T05:30:29;10.30;;;3.40;;
72286;SDS011;60221;45.696;16.076;2023-04-16T05:32:56;7.10;;;2.70;;
72286;SDS011;60221;45.696;16.076;2023-04-16T05:35:23;6.20;;;2.10;;
72286;SDS011;60221;45.696;16.076;2023-04-16T05:37:49;6.70;;;2.50;;
72286;SDS011;60221;45.696;16.076;2023-04-16T05:40:16;6.40;;;2.10;;
72286;SDS011;60221;45.696;16.076;2023-04-16T05:42:43;7.50;;;2.40;;
72286;SDS011;60221;45.696;16.076;2023-04-16T05:45:10;6.30;;;1.60;;
72286;SDS011;60221;45.696;16.076;2023-04-16T05:47:37;5.50;;;1.40;;
72286;SDS011;60221;45.696;16.076;2023-04-16T05:50:04;3.80;;;0.90;;
72286;SDS011;60221;45.696;16.076;2023-04-16T05:52:31;4.80;;;0.90;;
72286;SDS011;60221;45.696;16.076;2023-04-16T05:54:57;3.60;;;0.50;;
72286;SDS011;60221;45.696;16.076;2023-04-16T05:57:27;7.00;;;0.80;;
72286;SDS011;60221;45.696;16.076;2023-04-16T05:59:54;6.00;;;0.90;;
72286;SDS011;60221;45.696;16.076;2023-04-16T06:02:21;4.00;;;0.90;;
72286;SDS011;60221;45.696;16.076;2023-04-16T06:04:48;4.30;;;1.30;;
72286;SDS011;60221;45.696;16.076;2023-04-16T06:07:15;5.80;;;1.30;;
72286;SDS011;60221;45.696;16.076;2023-04-16T06:09:42;6.70;;;2.50;;
72286;SDS011;60221;45.696;16.076;2023-04-16T06:12:09;6.70;;;2.10;;
72286;SDS011;60221;45.696;16.076;2023-04-16T06:14:36;6.40;;;1.60;;
72286;SDS011;60221;45.696;16.076;2023-04-16T06:17:02;6.70;;;1.40;;
72286;SDS011;60221;45.696;16.076;2023-04-16T06:19:29;16.70;;;5.70;;
72286;SDS011;60221;45.696;16.076;2023-04-16T06:21:56;9.30;;;2.60;;
72286;SDS011;60221;45.696;16.076;2023-04-16T06:24:23;9.50;;;2.60;;
72286;SDS011;60221;45.696;16.076;2023-04-16T06:26:50;5.80;;;1.60;;
72286;SDS011;60221;45.696;16.076;2023-04-16T06:29:17;6.10;;;1.60;;
72286;SDS011;60221;45.696;16.076;2023-04-16T06:31:43;5.50;;;2.00;;
72286;SDS011;60221;45.696;16.076;2023-04-16T06:34:10;6.00;;;1.50;;
72286;SDS011;60221;45.696;16.076;2023-04-16T06:36:37;7.10;;;0.70;;
72286;SDS011;60221;45.696;16.076;2023-04-16T06:39:04;5.80;;;1.80;;
72286;SDS011;60221;45.696;16.076;2023-04-16T06:41:31;7.10;;;2.10;;
72286;SDS011;60221;45.696;16.076;2023-04-16T06:43:57;6.90;;;1.60;;
72286;SDS011;60221;45.696;16.076;2023-04-16T06:46:24;5.30;;;1.60;;
72286;SDS011;60221;45.696;16.076;2023-04-16T06:48:51;4.00;;;1.00;;
72286;SDS011;60221;45.696;16.076;2023-04-16T06:51:18;3.70;;;0.90;;
72286;SDS011;60221;45.696;16.076;2023-04-16T06:53:45;4.30;;;0.90;;
72286;SDS011;60221;45.696;16.076;2023-04-16T06:56:12;4.80;;;1.00;;
72286;SDS011;60221;45.696;16.076;2023-04-16T06:58:38;3.30;;;0.50;;
72286;SDS011;60221;45.696;16.076;2023-04-16T07:01:05;3.30;;;0.60;;
72286;SDS011;60221;45.696;16.076;2023-04-16T07:03:32;3.00;;;0.20;;
72286;SDS011;60221;45.696;16.076;2023-04-16T07:05:59;2.30;;;0.30;;
72286;SDS011;60221;45.696;16.076;2023-04-16T07:08:26;3.40;;;0.40;;
72286;SDS011;60221;45.696;16.076;2023-04-16T07:10:53;2.50;;;0.20;;
72286;SDS011;60221;45.696;16.076;2023-04-16T07:13:20;1.90;;;0.10;;
72286;SDS011;60221;45.696;16.076;2023-04-16T07:15:47;1.90;;;0.20;;
72286;SDS011;60221;45.696;16.076;2023-04-16T07:18:14;1.50;;;0.10;;
72286;SDS011;60221;45.696;16.076;2023-04-16T07:20:42;2.40;;;0.20;;
72286;SDS011;60221;45.696;16.076;2023-04-16T07:23:08;1.60;;;0.00;;
72286;SDS011;60221;45.696;16.076;2023-04-16T07:25:35;2.50;;;0.40;;
72286;SDS011;60221;45.696;16.076;2023-04-16T07:28:02;1.70;;;0.20;;
72286;SDS011;60221;45.696;16.076;2023-04-16T07:30:29;2.80;;;0.20;;
72286;SDS011;60221;45.696;16.076;2023-04-16T07:33:02;2.90;;;0.30;;
72286;SDS011;60221;45.696;16.076;2023-04-16T07:35:29;2.40;;;0.20;;
72286;SDS011;60221;45.696;16.076;2023-04-16T07:37:56;2.50;;;0.30;;
72286;SDS011;60221;45.696;16.076;2023-04-16T07:40:23;3.20;;;0.40;;
72286;SDS011;60221;45.696;16.076;2023-04-16T07:42:50;4.40;;;0.40;;
72286;SDS011;60221;45.696;16.076;2023-04-16T07:45:17;2.50;;;0.30;;
72286;SDS011;60221;45.696;16.076;2023-04-16T07:47:44;3.00;;;0.40;;
72286;SDS011;60221;45.696;16.076;2023-04-16T07:50:11;3.10;;;0.40;;
72286;SDS011;60221;45.696;16.076;2023-04-16T07:52:38;4.10;;;0.50;;
72286;SDS011;60221;45.696;16.076;2023-04-16T07:55:09;3.20;;;0.50;;
72286;SDS011;60221;45.696;16.076;2023-04-16T07:57:36;3.80;;;0.70;;
72286;SDS011;60221;45.696;16.076;2023-04-16T08:00:03;5.20;;;0.80;;
72286;SDS011;60221;45.696;16.076;2023-04-16T08:02:38;3.70;;;0.50;;
72286;SDS011;60221;45.696;16.076;2023-04-16T08:05:05;4.50;;;1.10;;
72286;SDS011;60221;45.696;16.076;2023-04-16T08:07:32;4.20;;;1.10;;
72286;SDS011;60221;45.696;16.076;2023-04-16T08:10:00;5.10;;;1.00;;
72286;SDS011;60221;45.696;16.076;2023-04-16T08:12:28;2.90;;;0.40;;
72286;SDS011;60221;45.696;16.076;2023-04-16T08:14:55;3.50;;;0.60;;
72286;SDS011;60221;45.696;16.076;2023-04-16T08:17:21;3.20;;;0.50;;
72286;SDS011;60221;45.696;16.076;2023-04-16T08:19:48;2.80;;;0.40;;
72286;SDS011;60221;45.696;16.076;2023-04-16T08:22:15;3.40;;;0.40;;
72286;SDS011;60221;45.696;16.076;2023-04-16T08:24:42;3.60;;;0.30;;
72286;SDS011;60221;45.696;16.076;2023-04-16T08:27:09;3.90;;;0.60;;
72286;SDS011;60221;45.696;16.076;2023-04-16T08:29:45;2.90;;;0.30;;
72286;SDS011;60221;45.696;16.076;2023-04-16T08:32:12;2.60;;;0.40;;
72286;SDS011;60221;45.696;16.076;2023-04-16T08:34:39;2.80;;;0.40;;
72286;SDS011;60221;45.696;16.076;2023-04-16T08:37:07;3.00;;;0.30;;
72286;SDS011;60221;45.696;16.076;2023-04-16T08:39:33;3.50;;;0.30;;
72286;SDS011;60221;45.696;16.076;2023-04-16T08:42:01;2.20;;;0.20;;
72286;SDS011;60221;45.696;16.076;2023-04-16T08:44:36;2.90;;;0.30;;
72286;SDS011;60221;45.696;16.076;2023-04-16T08:47:03;2.20;;;0.30;;
72286;SDS011;60221;45.696;16.076;2023-04-16T08:49:33;2.60;;;0.30;;
72286;SDS011;60221;45.696;16.076;2023-04-16T08:52:02;3.10;;;0.40;;
72286;SDS011;60221;45.696;16.076;2023-04-16T08:54:37;2.90;;;0.30;;
72286;SDS011;60221;45.696;16.076;2023-04-16T08:57:05;3.00;;;0.50;;
72286;SDS011;60221;45.696;16.076;2023-04-16T08:59:33;2.70;;;0.40;;
72286;SDS011;60221;45.696;16.076;2023-04-16T09:01:59;3.30;;;0.50;;
72286;SDS011;60221;45.696;16.076;2023-04-16T09:04:27;2.40;;;0.30;;
72286;SDS011;60221;45.696;16.076;2023-04-16T09:06:55;2.80;;;0.50;;
72286;SDS011;60221;45.696;16.076;2023-04-16T09:09:25;3.60;;;0.50;;
72286;SDS011;60221;45.696;16.076;2023-04-16T09:11:52;3.50;;;0.60;;
72286;SDS011;60221;45.696;16.076;2023-04-16T09:14:19;2.90;;;0.50;;
72286;SDS011;60221;45.696;16.076;2023-04-16T09:16:47;3.60;;;0.40;;
72286;SDS011;60221;45.696;16.076;2023-04-16T09:19:14;4.10;;;0.50;;
72286;SDS011;60221;45.696;16.076;2023-04-16T09:21:44;3.40;;;0.40;;
72286;SDS011;60221;45.696;16.076;2023-04-16T09:24:13;2.60;;;0.40;;
72286;SDS011;60221;45.696;16.076;2023-04-16T09:26:40;2.90;;;0.40;;
72286;SDS011;60221;45.696;16.076;2023-04-16T09:29:10;2.60;;;0.20;;
72286;SDS011;60221;45.696;16.076;2023-04-16T09:31:37;3.10;;;0.20;;
72286;SDS011;60221;45.696;16.076;2023-04-16T09:34:07;2.00;;;0.20;;
72286;SDS011;60221;45.696;16.076;2023-04-16T09:36:35;1.60;;;0.20;;
72286;SDS011;60221;45.696;16.076;2023-04-16T09:39:03;1.90;;;0.20;;
72286;SDS011;60221;45.696;16.076;2023-04-16T09:41:31;1.30;;;0.10;;
72286;SDS011;60221;45.696;16.076;2023-04-16T09:43:59;1.60;;;0.10;;
72286;SDS011;60221;45.696;16.076;2023-04-16T09:46:30;2.20;;;0.20;;
72286;SDS011;60221;45.696;16.076;2023-04-16T09:48:57;3.00;;;0.20;;
72286;SDS011;60221;45.696;16.076;2023-04-16T09:51:24;2.30;;;0.20;;
72286;SDS011;60221;45.696;16.076;2023-04-16T09:53:52;2.30;;;0.30;;
72286;SDS011;60221;45.696;16.076;2023-04-16T09:56:22;4.10;;;0.40;;
72286;SDS011;60221;45.696;16.076;2023-04-16T09:58:49;2.20;;;0.30;;
72286;SDS011;60221;45.696;16.076;2023-04-16T10:01:16;3.00;;;0.40;;
72286;SDS011;60221;45.696;16.076;2023-04-16T10:03:43;3.30;;;0.60;;
72286;SDS011;60221;45.696;16.076;2023-04-16T10:06:16;2.60;;;0.30;;
72286;SDS011;60221;45.696;16.076;2023-04-16T10:08:53;2.60;;;0.30;;
72286;SDS011;60221;45.696;16.076;2023-04-16T10:11:22;2.90;;;0.40;;
72286;SDS011;60221;45.696;16.076;2023-04-16T10:13:49;2.80;;;0.40;;
72286;SDS011;60221;45.696;16.076;2023-04-16T10:16:17;2.40;;;0.30;;
72286;SDS011;60221;45.696;16.076;2023-04-16T10:18:44;3.00;;;0.40;;
72286;SDS011;60221;45.696;16.076;2023-04-16T10:21:11;3.40;;;0.40;;
72286;SDS011;60221;45.696;16.076;2023-04-16T10:23:38;3.10;;;0.50;;
72286;SDS011;60221;45.696;16.076;2023-04-16T10:26:05;4.00;;;0.50;;
72286;SDS011;60221;45.696;16.076;2023-04-16T10:28:32;3.00;;;0.50;;
72286;SDS011;60221;45.696;16.076;2023-04-16T10:31:04;2.30;;;0.40;;
72286;SDS011;60221;45.696;16.076;2023-04-16T10:33:39;5.20;;;0.80;;
72286;SDS011;60221;45.696;16.076;2023-04-16T10:36:07;3.30;;;0.60;;
72286;SDS011;60221;45.696;16.076;2023-04-16T10:38:39;3.60;;;0.70;;
72286;SDS011;60221;45.696;16.076;2023-04-16T10:41:06;3.20;;;0.30;;
72286;SDS011;60221;45.696;16.076;2023-04-16T10:43:43;4.00;;;0.80;;
72286;SDS011;60221;45.696;16.076;2023-04-16T10:46:24;3.60;;;0.80;;
72286;SDS011;60221;45.696;16.076;2023-04-16T10:48:52;6.20;;;0.90;;
72286;SDS011;60221;45.696;16.076;2023-04-16T10:53:49;4.20;;;1.20;;
72286;SDS011;60221;45.696;16.076;2023-04-16T10:56:23;3.80;;;0.50;;
72286;SDS011;60221;45.696;16.076;2023-04-16T10:58:51;3.30;;;0.90;;
72286;SDS011;60221;45.696;16.076;2023-04-16T11:01:18;4.10;;;1.30;;
72286;SDS011;60221;45.696;16.076;2023-04-16T11:03:51;3.90;;;0.90;;
72286;SDS011;60221;45.696;16.076;2023-04-16T11:06:25;3.30;;;0.50;;
72286;SDS011;60221;45.696;16.076;2023-04-16T11:08:53;3.50;;;0.70;;
72286;SDS011;60221;45.696;16.076;2023-04-16T11:11:37;3.20;;;0.50;;
72286;SDS011;60221;45.696;16.076;2023-04-16T11:14:05;3.30;;;0.60;;
72286;SDS011;60221;45.696;16.076;2023-04-16T11:16:32;2.80;;;0.50;;
72286;SDS011;60221;45.696;16.076;2023-04-16T11:18:58;3.40;;;0.60;;
72286;SDS011;60221;45.696;16.076;2023-04-16T11:21:26;3.10;;;0.60;;
72286;SDS011;60221;45.696;16.076;2023-04-16T11:23:54;3.80;;;0.90;;
72286;SDS011;60221;45.696;16.076;2023-04-16T11:26:23;3.50;;;0.70;;
72286;SDS011;60221;45.696;16.076;2023-04-16T11:28:51;3.00;;;0.50;;
72286;SDS011;60221;45.696;16.076;2023-04-16T11:31:17;2.90;;;0.50;;
72286;SDS011;60221;45.696;16.076;2023-04-16T11:33:45;2.90;;;0.50;;
72286;SDS011;60221;45.696;16.076;2023-04-16T11:36:12;4.10;;;0.90;;
72286;SDS011;60221;45.696;16.076;2023-04-16T11:38:39;3.00;;;0.50;;
72286;SDS011;60221;45.696;16.076;2023-04-16T11:41:09;3.30;;;0.90;;
72286;SDS011;60221;45.696;16.076;2023-04-16T11:43:36;3.30;;;0.40;;
72286;SDS011;60221;45.696;16.076;2023-04-16T11:46:04;3.20;;;0.60;;
72286;SDS011;60221;45.696;16.076;2023-04-16T11:48:52;3.20;;;0.70;;
72286;SDS011;60221;45.696;16.076;2023-04-16T11:51:19;2.60;;;0.40;;
72286;SDS011;60221;45.696;16.076;2023-04-16T11:53:51;2.70;;;0.30;;
72286;SDS011;60221;45.696;16.076;2023-04-16T11:56:26;3.40;;;0.60;;
72286;SDS011;60221;45.696;16.076;2023-04-16T12:01:34;3.40;;;0.50;;
72286;SDS011;60221;45.696;16.076;2023-04-16T12:04:02;2.30;;;0.30;;
72286;SDS011;60221;45.696;16.076;2023-04-16T12:06:29;2.60;;;0.60;;
72286;SDS011;60221;45.696;16.076;2023-04-16T12:08:58;3.70;;;0.70;;
72286;SDS011;60221;45.696;16.076;2023-04-16T12:11:40;2.90;;;0.40;;
72286;SDS011;60221;45.696;16.076;2023-04-16T12:16:34;3.50;;;0.70;;
72286;SDS011;60221;45.696;16.076;2023-04-16T12:19:02;2.30;;;0.40;;
72286;SDS011;60221;45.696;16.076;2023-04-16T12:21:44;3.30;;;0.40;;
72286;SDS011;60221;45.696;16.076;2023-04-16T12:24:13;2.90;;;0.40;;
72286;SDS011;60221;45.696;16.076;2023-04-16T12:26:44;3.50;;;0.60;;
72286;SDS011;60221;45.696;16.076;2023-04-16T12:29:16;3.00;;;0.60;;
72286;SDS011;60221;45.696;16.076;2023-04-16T12:31:43;3.20;;;0.40;;
72286;SDS011;60221;45.696;16.076;2023-04-16T12:34:10;3.10;;;0.60;;
72286;SDS011;60221;45.696;16.076;2023-04-16T12:36:37;3.00;;;0.40;;
72286;SDS011;60221;45.696;16.076;2023-04-16T12:39:04;2.80;;;0.20;;
72286;SDS011;60221;45.696;16.076;2023-04-16T12:41:31;3.30;;;0.80;;
72286;SDS011;60221;45.696;16.076;2023-04-16T12:44:31;2.60;;;0.30;;
72286;SDS011;60221;45.696;16.076;2023-04-16T12:46:53;3.00;;;0.50;;
72286;SDS011;60221;45.696;16.076;2023-04-16T12:49:20;3.10;;;0.50;;
72286;SDS011;60221;45.696;16.076;2023-04-16T12:51:47;3.30;;;0.90;;
72286;SDS011;60221;45.696;16.076;2023-04-16T12:54:14;2.90;;;0.60;;
72286;SDS011;60221;45.696;16.076;2023-04-16T12:56:41;6.60;;;1.70;;
72286;SDS011;60221;45.696;16.076;2023-04-16T12:59:08;5.10;;;1.70;;
72286;SDS011;60221;45.696;16.076;2023-04-16T13:01:36;7.00;;;3.60;;
72286;SDS011;60221;45.696;16.076;2023-04-16T13:04:03;2.90;;;0.60;;
72286;SDS011;60221;45.696;16.076;2023-04-16T13:06:30;2.30;;;0.30;;
72286;SDS011;60221;45.696;16.076;2023-04-16T13:09:01;4.20;;;0.60;;
72286;SDS011;60221;45.696;16.076;2023-04-16T13:11:28;1.80;;;0.20;;
72286;SDS011;60221;45.696;16.076;2023-04-16T13:13:55;1.40;;;0.10;;
72286;SDS011;60221;45.696;16.076;2023-04-16T13:16:23;2.10;;;0.20;;
72286;SDS011;60221;45.696;16.076;2023-04-16T13:18:50;2.00;;;0.20;;
72286;SDS011;60221;45.696;16.076;2023-04-16T13:21:17;4.30;;;0.60;;
72286;SDS011;60221;45.696;16.076;2023-04-16T13:23:44;3.20;;;0.50;;
72286;SDS011;60221;45.696;16.076;2023-04-16T13:26:11;2.40;;;0.20;;
72286;SDS011;60221;45.696;16.076;2023-04-16T13:28:40;1.50;;;0.20;;
72286;SDS011;60221;45.696;16.076;2023-04-16T13:31:07;2.20;;;0.20;;
72286;SDS011;60221;45.696;16.076;2023-04-16T13:33:34;2.10;;;0.20;;
72286;SDS011;60221;45.696;16.076;2023-04-16T13:36:01;2.20;;;0.20;;
72286;SDS011;60221;45.696;16.076;2023-04-16T13:38:28;1.70;;;0.20;;
72286;SDS011;60221;45.696;16.076;2023-04-16T13:40:55;2.50;;;0.30;;
72286;SDS011;60221;45.696;16.076;2023-04-16T13:43:22;1.60;;;0.10;;
72286;SDS011;60221;45.696;16.076;2023-04-16T13:45:51;2.80;;;0.30;;
72286;SDS011;60221;45.696;16.076;2023-04-16T13:48:18;3.00;;;0.30;;
72286;SDS011;60221;45.696;16.076;2023-04-16T13:50:45;1.90;;;0.20;;
72286;SDS011;60221;45.696;16.076;2023-04-16T13:53:12;1.90;;;0.30;;
72286;SDS011;60221;45.696;16.076;2023-04-16T13:55:39;2.30;;;0.40;;
72286;SDS011;60221;45.696;16.076;2023-04-16T13:58:07;1.80;;;0.20;;
72286;SDS011;60221;45.696;16.076;2023-04-16T14:00:34;2.10;;;0.20;;
72286;SDS011;60221;45.696;16.076;2023-04-16T14:03:01;1.60;;;0.20;;
72286;SDS011;60221;45.696;16.076;2023-04-16T14:05:29;1.70;;;0.10;;
72286;SDS011;60221;45.696;16.076;2023-04-16T14:07:56;1.50;;;0.20;;
72286;SDS011;60221;45.696;16.076;2023-04-16T14:10:23;2.40;;;0.50;;
72286;SDS011;60221;45.696;16.076;2023-04-16T14:12:50;2.60;;;0.20;;
72286;SDS011;60221;45.696;16.076;2023-04-16T14:15:17;4.20;;;1.00;;
72286;SDS011;60221;45.696;16.076;2023-04-16T14:17:44;2.20;;;0.40;;
72286;SDS011;60221;45.696;16.076;2023-04-16T14:20:11;2.00;;;0.20;;
72286;SDS011;60221;45.696;16.076;2023-04-16T14:22:39;1.70;;;0.20;;
72286;SDS011;60221;45.696;16.076;2023-04-16T14:25:08;2.50;;;0.20;;
72286;SDS011;60221;45.696;16.076;2023-04-16T14:27:34;1.80;;;0.20;;
72286;SDS011;60221;45.696;16.076;2023-04-16T14:30:02;1.80;;;0.10;;
72286;SDS011;60221;45.696;16.076;2023-04-16T14:32:29;2.90;;;0.20;;
72286;SDS011;60221;45.696;16.076;2023-04-16T14:34:56;2.20;;;0.20;;
72286;SDS011;60221;45.696;16.076;2023-04-16T14:37:25;3.00;;;0.30;;
72286;SDS011;60221;45.696;16.076;2023-04-16T14:39:52;1.40;;;0.10;;
72286;SDS011;60221;45.696;16.076;2023-04-16T14:42:19;2.20;;;0.20;;
72286;SDS011;60221;45.696;16.076;2023-04-16T14:44:48;1.50;;;0.20;;